Time;durP1;ratioP1;P1;durP2;ratioP2;P2;SDS_P1;SDS_P2;PMS_P1;PMS_P2;Temp;Humidity;BMP_temperature;BMP_pressure;BME280_temperature;BME280_humidity;BME280_pressure;Samples;Min_cycle;Max_cycle;Signal;HPM_P1;HPM_P2
2023/01/14 00:01:06;;;;;;;2.25;1.60;;;10.20;80.70;;;;;;5059891;28;20033;-86
2023/01/14 00:03:31;;;;;;;1.98;1.40;;;10.20;80.80;;;;;;5083998;28;20032;-86
2023/01/14 00:06:01;;;;;;;1.33;1.23;;;10.20;80.80;;;;;;5063904;28;20035;-85
2023/01/14 00:08:28;;;;;;;2.60;1.73;;;10.20;80.80;;;;;;5093876;28;20028;-86
2023/01/14 00:10:54;;;;;;;1.77;1.50;;;10.20;80.70;;;;;;5063882;28;20028;-85
2023/01/14 00:13:21;;;;;;;2.25;1.33;;;10.20;80.70;;;;;;5089194;28;20035;-86
2023/01/14 00:15:52;;;;;;;2.67;1.60;;;10.20;80.70;;;;;;5091069;28;20051;-86
2023/01/14 00:18:18;;;;;;;3.38;1.58;;;10.20;80.80;;;;;;5103709;28;20055;-85
2023/01/14 00:20:53;;;;;;;2.03;1.30;;;10.20;80.80;;;;;;5095423;28;20059;-86
2023/01/14 00:23:19;;;;;;;2.50;1.48;;;10.20;80.80;;;;;;5095160;28;20030;-86
2023/01/14 00:25:45;;;;;;;3.13;1.70;;;10.20;80.70;;;;;;5087853;28;20099;-85
2023/01/14 00:28:10;;;;;;;2.58;1.50;;;10.20;80.70;;;;;;5090495;28;20095;-86
2023/01/14 00:30:36;;;;;;;1.80;1.48;;;10.20;80.80;;;;;;5078593;28;20032;-85
2023/01/14 00:33:02;;;;;;;2.92;1.40;;;10.20;80.80;;;;;;5084158;28;20036;-85
2023/01/14 00:35:28;;;;;;;2.10;1.50;;;10.20;80.80;;;;;;5076896;28;20407;-85
2023/01/14 00:37:56;;;;;;;2.35;1.52;;;10.20;80.80;;;;;;5068958;28;20039;-86
2023/01/14 00:40:21;;;;;;;2.42;1.45;;;10.20;80.80;;;;;;5077818;28;20027;-86
2023/01/14 00:42:50;;;;;;;3.45;1.40;;;10.20;80.80;;;;;;5082547;28;20032;-85
2023/01/14 00:45:16;;;;;;;2.67;1.40;;;10.10;80.80;;;;;;5061582;28;20389;-86
2023/01/14 00:47:42;;;;;;;2.42;1.52;;;10.10;80.80;;;;;;5063510;28;20024;-86
2023/01/14 00:50:08;;;;;;;2.85;1.80;;;10.10;80.80;;;;;;5076310;28;20028;-85
2023/01/14 00:52:34;;;;;;;3.53;1.85;;;10.10;80.80;;;;;;5078159;28;20114;-87
2023/01/14 00:55:00;;;;;;;2.63;1.60;;;10.10;80.80;;;;;;5077573;28;20115;-86
2023/01/14 00:57:25;;;;;;;1.52;1.42;;;10.10;80.70;;;;;;5066881;28;20016;-86
2023/01/14 00:59:51;;;;;;;3.45;1.50;;;10.10;80.80;;;;;;5057017;28;20040;-86
2023/01/14 01:02:17;;;;;;;2.35;1.52;;;10.10;80.80;;;;;;5054444;28;20021;-85
2023/01/14 01:04:43;;;;;;;3.28;1.73;;;10.10;80.80;;;;;;5092264;28;20365;-85
2023/01/14 01:07:09;;;;;;;2.13;1.40;;;10.10;80.80;;;;;;5061282;28;20424;-86
2023/01/14 01:09:36;;;;;;;2.72;1.60;;;10.10;80.80;;;;;;5042535;28;20603;-85
2023/01/14 01:12:05;;;;;;;2.70;1.73;;;10.10;80.80;;;;;;5064905;28;20043;-86
2023/01/14 01:14:31;;;;;;;1.80;1.33;;;10.10;80.80;;;;;;5042747;28;20492;-86
2023/01/14 01:16:57;;;;;;;2.65;1.58;;;10.00;80.70;;;;;;5061536;28;20035;-86
2023/01/14 01:19:22;;;;;;;1.77;1.42;;;10.00;80.80;;;;;;5056292;28;20128;-87
2023/01/14 01:21:48;;;;;;;4.88;1.90;;;10.00;80.80;;;;;;5062612;28;20039;-86
2023/01/14 01:24:15;;;;;;;3.60;1.73;;;10.00;81.00;;;;;;5062919;28;20388;-87
2023/01/14 01:26:41;;;;;;;3.75;1.85;;;10.00;80.80;;;;;;5058106;28;20043;-85
2023/01/14 01:29:07;;;;;;;2.42;1.67;;;10.00;80.80;;;;;;5061693;28;20036;-85
2023/01/14 01:31:32;;;;;;;2.17;1.60;;;10.00;80.80;;;;;;5054870;28;20115;-85
2023/01/14 01:33:58;;;;;;;4.82;1.90;;;10.00;80.80;;;;;;5076007;28;20024;-85
2023/01/14 01:36:27;;;;;;;2.22;1.60;;;10.00;80.80;;;;;;5029626;28;20558;-85
2023/01/14 01:38:53;;;;;;;4.00;1.77;;;10.00;80.80;;;;;;5074797;28;20073;-85
2023/01/14 01:41:27;;;;;;;2.83;1.60;;;10.00;80.80;;;;;;5060328;28;20032;-85
2023/01/14 01:44:01;;;;;;;2.95;1.60;;;10.00;80.80;;;;;;5060960;28;20024;-84
2023/01/14 01:46:27;;;;;;;2.90;1.73;;;10.00;80.80;;;;;;5074590;28;20020;-85
2023/01/14 01:48:58;;;;;;;3.45;1.50;;;10.00;80.70;;;;;;5065961;28;20028;-85
2023/01/14 01:51:28;;;;;;;3.70;1.90;;;10.00;80.70;;;;;;5062614;28;20024;-85
2023/01/14 01:53:56;;;;;;;3.45;1.83;;;10.00;80.80;;;;;;5077762;28;20032;-85
2023/01/14 01:56:27;;;;;;;2.08;1.40;;;10.00;80.80;;;;;;5048188;28;20028;-84
2023/01/14 01:58:54;;;;;;;1.58;1.33;;;10.00;80.80;;;;;;5064192;28;20020;-85
2023/01/14 02:01:20;;;;;;;3.75;1.48;;;10.00;80.80;;;;;;5060686;28;20115;-87
2023/01/14 02:03:48;;;;;;;4.30;1.75;;;10.00;80.80;;;;;;5064077;28;20028;-85
2023/01/14 02:06:15;;;;;;;2.28;1.60;;;10.00;80.80;;;;;;5060428;28;20020;-86
2023/01/14 02:08:44;;;;;;;3.30;1.60;;;10.00;80.80;;;;;;5085590;28;20050;-85
2023/01/14 02:11:31;;;;;;;2.15;1.42;;;9.90;80.80;;;;;;5072226;28;20020;-85
2023/01/14 02:14:18;;;;;;;4.25;1.58;;;9.90;80.80;;;;;;5068012;28;20543;-85
2023/01/14 02:17:11;;;;;;;3.05;1.63;;;9.90;80.80;;;;;;5068980;28;20063;-85
2023/01/14 02:20:21;;;;;;;3.95;1.77;;;9.90;80.80;;;;;;5092476;28;20773;-87
2023/01/14 02:23:15;;;;;;;2.67;1.60;;;9.90;80.90;;;;;;5062070;28;20036;-85
2023/01/14 02:26:16;;;;;;;2.28;1.58;;;9.90;80.90;;;;;;5056316;28;20039;-85
2023/01/14 02:29:03;;;;;;;2.08;1.50;;;9.80;80.90;;;;;;5086195;28;20024;-86
2023/01/14 02:31:49;;;;;;;2.17;1.50;;;9.80;80.90;;;;;;5077948;28;20032;-85
2023/01/14 02:34:26;;;;;;;2.20;1.42;;;9.80;80.90;;;;;;5074454;28;20023;-85
2023/01/14 02:37:07;;;;;;;3.22;1.42;;;9.80;80.90;;;;;;5059464;28;20040;-85
2023/01/14 02:39:45;;;;;;;3.97;1.70;;;9.80;80.90;;;;;;5078201;28;20035;-85
2023/01/14 02:45:51;;;;;;;2.58;1.30;;;9.80;80.90;;;;;;5074056;28;20070;-85
2023/01/14 02:48:19;;;;;;;3.85;1.77;;;9.80;80.90;;;;;;5069222;28;20036;-85
2023/01/14 02:50:46;;;;;;;4.88;2.03;;;9.70;80.80;;;;;;5082490;28;20479;-84
2023/01/14 02:53:19;;;;;;;5.90;2.00;;;9.70;80.80;;;;;;5062375;28;20527;-86
2023/01/14 02:55:46;;;;;;;3.25;1.58;;;9.70;80.90;;;;;;5076867;28;20107;-85
2023/01/14 02:58:29;;;;;;;1.88;1.45;;;9.70;80.90;;;;;;5066066;28;20125;-85
2023/01/14 03:01:16;;;;;;;3.47;1.75;;;9.70;80.90;;;;;;5086273;28;21505;-89
2023/01/14 03:04:19;;;;;;;3.17;1.73;;;9.70;80.90;;;;;;5078519;28;20101;-86
2023/01/14 03:07:07;;;;;;;2.85;1.52;;;9.70;80.90;;;;;;5079266;28;20024;-85
2023/01/14 03:09:45;;;;;;;3.58;1.60;;;9.70;80.90;;;;;;5085959;28;20035;-85
2023/01/14 03:12:20;;;;;;;3.83;2.20;;;9.60;80.90;;;;;;5085203;28;20119;-84
2023/01/14 03:15:05;;;;;;;3.40;1.85;;;9.60;80.90;;;;;;5081196;28;20051;-85
2023/01/14 03:17:40;;;;;;;3.47;1.55;;;9.60;81.00;;;;;;5081563;28;20119;-85
2023/01/14 03:20:10;;;;;;;3.47;1.70;;;9.60;80.90;;;;;;5089274;28;20028;-85
2023/01/14 03:22:40;;;;;;;2.97;1.40;;;9.60;80.90;;;;;;5095931;28;20024;-85
2023/01/14 03:25:08;;;;;;;3.08;1.80;;;9.60;80.90;;;;;;5090376;28;20484;-85
2023/01/14 03:27:36;;;;;;;4.15;2.30;;;9.60;80.90;;;;;;5081515;28;20039;-87
2023/01/14 03:30:10;;;;;;;3.53;2.00;;;9.50;81.50;;;;;;5087968;28;20086;-85
2023/01/14 03:32:43;;;;;;;3.30;1.67;;;9.50;80.90;;;;;;5069681;28;20016;-84
2023/01/14 03:35:12;;;;;;;5.85;1.70;;;9.50;80.90;;;;;;5083432;28;20028;-85
2023/01/14 03:37:44;;;;;;;2.88;1.70;;;9.50;80.90;;;;;;5062037;28;20119;-84
2023/01/14 03:40:12;;;;;;;4.55;1.83;;;9.50;80.90;;;;;;5089647;28;20079;-85
2023/01/14 03:42:43;;;;;;;4.47;2.00;;;9.50;80.90;;;;;;5072542;28;20036;-85
2023/01/14 03:45:12;;;;;;;5.60;2.15;;;9.50;80.90;;;;;;5060850;28;20029;-85
2023/01/14 03:47:39;;;;;;;4.38;2.05;;;9.50;80.90;;;;;;5090304;28;20032;-87
2023/01/14 03:50:08;;;;;;;3.05;1.90;;;9.50;81.00;;;;;;5071206;28;20055;-85
2023/01/14 03:53:01;;;;;;;5.47;2.20;;;9.50;80.90;;;;;;5080676;28;20036;-85
2023/01/14 03:55:36;;;;;;;3.92;1.83;;;9.40;80.90;;;;;;5085825;28;20024;-85
2023/01/14 03:58:24;;;;;;;6.05;1.90;;;9.40;80.80;;;;;;5074018;28;20054;-85
2023/01/14 04:00:56;;;;;;;3.30;2.00;;;9.40;80.90;;;;;;5073226;28;20024;-85
2023/01/14 04:03:23;;;;;;;2.53;1.60;;;9.40;80.90;;;;;;5095491;28;20031;-87
2023/01/14 04:05:49;;;;;;;4.75;1.90;;;9.40;81.00;;;;;;5084242;28;20033;-85
2023/01/14 04:08:21;;;;;;;4.18;1.90;;;9.40;81.00;;;;;;5063060;28;20032;-86
2023/01/14 04:10:47;;;;;;;3.03;1.60;;;9.40;81.00;;;;;;5077473;28;20085;-85
2023/01/14 04:16:01;;;;;;;2.72;2.05;;;9.30;81.00;;;;;;5074475;28;20059;-85
2023/01/14 04:18:27;;;;;;;3.83;1.90;;;9.40;81.00;;;;;;5077072;28;20024;-85
2023/01/14 04:20:53;;;;;;;4.72;1.95;;;9.30;81.00;;;;;;5058530;28;20495;-89
2023/01/14 04:23:18;;;;;;;4.18;2.13;;;9.30;80.40;;;;;;5075443;28;20027;-85
2023/01/14 04:25:44;;;;;;;3.90;2.00;;;9.30;81.00;;;;;;5067236;28;20035;-85
2023/01/14 04:28:10;;;;;;;3.38;2.10;;;9.30;81.00;;;;;;5060153;28;20024;-84
2023/01/14 04:30:36;;;;;;;2.53;1.63;;;9.30;81.00;;;;;;5049630;28;20464;-85
2023/01/14 04:33:02;;;;;;;4.32;2.10;;;9.20;81.00;;;;;;5076682;28;20127;-85
2023/01/14 04:35:28;;;;;;;4.28;1.80;;;9.30;81.00;;;;;;5076908;28;20032;-85
2023/01/14 04:37:54;;;;;;;3.30;1.65;;;9.30;81.00;;;;;;5075097;28;20032;-85
2023/01/14 04:40:22;;;;;;;4.65;2.00;;;9.30;81.00;;;;;;5080164;28;20035;-86
2023/01/14 04:42:50;;;;;;;2.78;1.75;;;9.20;81.00;;;;;;5091049;28;20465;-85
2023/01/14 04:45:16;;;;;;;4.18;1.83;;;9.20;81.00;;;;;;5095491;28;20028;-85
2023/01/14 04:47:42;;;;;;;4.65;2.05;;;9.20;81.00;;;;;;5071007;28;20052;-86
2023/01/14 04:52:53;;;;;;;2.97;1.80;;;9.20;81.00;;;;;;5076364;28;20036;-86
2023/01/14 04:55:19;;;;;;;3.85;1.70;;;9.20;81.00;;;;;;5077300;28;20036;-85
2023/01/14 04:57:45;;;;;;;2.88;1.73;;;9.20;81.00;;;;;;5060469;28;20032;-85
2023/01/14 05:00:11;;;;;;;3.35;1.80;;;9.20;81.00;;;;;;5103238;28;20051;-85
2023/01/14 05:02:37;;;;;;;5.63;2.10;;;9.20;81.10;;;;;;5064814;28;20472;-85
2023/01/14 05:05:03;;;;;;;3.03;1.83;;;9.10;81.00;;;;;;5085869;28;20039;-88
2023/01/14 05:07:29;;;;;;;5.13;1.88;;;9.10;81.00;;;;;;5062490;28;20042;-85
2023/01/14 05:09:54;;;;;;;4.40;1.75;;;9.10;81.00;;;;;;5059661;28;20035;-84
2023/01/14 05:12:20;;;;;;;4.85;2.15;;;9.10;81.00;;;;;;5058657;28;20032;-87
2023/01/14 05:14:46;;;;;;;2.45;1.63;;;9.10;81.00;;;;;;5094624;28;20091;-85
2023/01/14 05:17:11;;;;;;;3.35;1.67;;;9.20;81.10;;;;;;5075591;28;20032;-85
2023/01/14 05:19:37;;;;;;;2.50;1.50;;;9.10;81.00;;;;;;5083625;28;20511;-85
2023/01/14 05:22:03;;;;;;;2.88;1.80;;;9.10;81.00;;;;;;5067021;28;20052;-85
2023/01/14 05:24:29;;;;;;;2.50;1.58;;;9.10;81.00;;;;;;5042106;28;20028;-86
2023/01/14 05:26:55;;;;;;;2.75;1.70;;;9.10;81.10;;;;;;5092625;28;20105;-85
2023/01/14 05:29:20;;;;;;;3.80;1.90;;;9.10;81.00;;;;;;5076183;28;20054;-86
2023/01/14 05:31:46;;;;;;;3.22;1.60;;;9.10;81.00;;;;;;5061332;28;20036;-85
2023/01/14 05:34:12;;;;;;;4.10;2.10;;;9.10;81.00;;;;;;5058847;28;20043;-85
2023/01/14 05:36:38;;;;;;;3.28;1.77;;;9.10;81.00;;;;;;5078222;28;20503;-87
2023/01/14 05:39:04;;;;;;;4.07;1.80;;;9.10;81.10;;;;;;5084793;28;20028;-85
2023/01/14 05:41:30;;;;;;;4.28;2.00;;;9.10;81.00;;;;;;5073686;28;20066;-85
2023/01/14 05:45:37;;;;;;;5.32;2.15;;;9.10;81.00;;;;;;5050078;28;20028;-85
2023/01/14 05:46:59;;;;;;;4.05;1.92;;;9.10;81.00;;;;;;5069734;28;20135;-85
2023/01/14 05:49:25;;;;;;;3.22;1.70;;;9.10;81.00;;;;;;5079272;28;21115;-84
2023/01/14 05:51:51;;;;;;;2.88;2.20;;;9.10;81.70;;;;;;5067487;28;20039;-85
2023/01/14 05:54:16;;;;;;;2.58;1.60;;;9.10;81.10;;;;;;5064509;28;20027;-84
2023/01/14 05:56:42;;;;;;;3.17;1.42;;;9.10;81.10;;;;;;5078696;28;20039;-85
2023/01/14 05:59:08;;;;;;;3.03;1.67;;;9.10;81.10;;;;;;5073948;28;20024;-86
2023/01/14 06:07:02;;;;;;;3.05;1.60;;;9.10;81.10;;;;;;5062124;28;20028;-86
2023/01/14 06:09:27;;;;;;;3.65;1.63;;;9.10;81.10;;;;;;5037252;28;20043;-85
2023/01/14 06:12:01;;;;;;;2.42;1.63;;;9.00;81.10;;;;;;5060107;28;20054;-85
2023/01/14 06:14:32;;;;;;;4.07;1.60;;;9.00;81.10;;;;;;5080887;28;20669;-85
2023/01/14 06:16:58;;;;;;;3.70;1.80;;;9.00;81.20;;;;;;5101802;28;20529;-85
2023/01/14 06:19:24;;;;;;;3.30;1.50;;;9.00;81.10;;;;;;5075475;28;20035;-84
2023/01/14 06:21:50;;;;;;;2.78;1.55;;;9.00;81.20;;;;;;5058714;28;20092;-84
2023/01/14 06:24:16;;;;;;;3.10;1.42;;;9.00;81.20;;;;;;5077801;28;20059;-84
2023/01/14 06:26:42;;;;;;;2.85;1.45;;;9.00;81.20;;;;;;5083648;28;20461;-84
2023/01/14 06:29:11;;;;;;;2.70;1.80;;;9.00;81.20;;;;;;5075896;28;20100;-85
2023/01/14 06:31:38;;;;;;;4.32;2.08;;;9.00;81.20;;;;;;5071779;28;20077;-85
2023/01/14 06:34:04;;;;;;;3.13;1.42;;;9.00;81.10;;;;;;5084111;28;20064;-85
2023/01/14 06:36:31;;;;;;;2.30;1.50;;;9.00;81.10;;;;;;5058314;28;20094;-84
2023/01/14 06:38:57;;;;;;;3.28;1.77;;;9.00;81.20;;;;;;5064809;28;20028;-85
2023/01/14 06:41:23;;;;;;;4.03;1.80;;;9.00;81.80;;;;;;5083627;28;20040;-84
2023/01/14 06:43:49;;;;;;;4.13;1.73;;;9.00;81.20;;;;;;5066631;28;20032;-85
2023/01/14 06:46:16;;;;;;;3.40;1.75;;;9.10;81.20;;;;;;5081546;28;20043;-84
2023/01/14 06:48:43;;;;;;;3.33;1.80;;;9.00;81.20;;;;;;5066866;28;20028;-83
2023/01/14 06:51:18;;;;;;;2.72;1.70;;;9.00;81.10;;;;;;5079001;28;20041;-85
2023/01/14 06:53:45;;;;;;;2.88;1.67;;;9.00;81.20;;;;;;5098626;28;20051;-86
2023/01/14 06:56:15;;;;;;;2.88;1.70;;;9.00;81.20;;;;;;5081589;28;20031;-87
2023/01/14 06:58:40;;;;;;;3.53;1.70;;;9.00;81.10;;;;;;5080336;28;20460;-84
2023/01/14 07:01:09;;;;;;;3.00;1.90;;;9.00;81.10;;;;;;5090020;28;20120;-86
2023/01/14 07:03:35;;;;;;;2.97;1.73;;;9.00;81.10;;;;;;5052636;28;20028;-85
2023/01/14 07:06:01;;;;;;;2.47;1.52;;;9.00;81.10;;;;;;5077232;28;20024;-87
2023/01/14 07:08:28;;;;;;;4.00;1.73;;;9.00;81.10;;;;;;5057000;28;20024;-85
2023/01/14 07:10:54;;;;;;;3.03;1.65;;;9.00;81.10;;;;;;5075819;28;20035;-86
2023/01/14 07:13:21;;;;;;;3.33;1.60;;;9.10;81.10;;;;;;5082109;28;20028;-85
2023/01/14 07:15:48;;;;;;;3.10;1.58;;;9.10;81.10;;;;;;5062359;28;20076;-86
2023/01/14 07:18:14;;;;;;;3.10;1.73;;;9.10;81.10;;;;;;5083322;28;20054;-86
2023/01/14 07:20:41;;;;;;;3.40;1.67;;;9.10;81.10;;;;;;5092818;28;20032;-86
2023/01/14 07:23:07;;;;;;;2.97;1.60;;;9.10;81.10;;;;;;5083596;28;20027;-86
2023/01/14 07:25:34;;;;;;;3.45;1.58;;;9.10;81.20;;;;;;5073106;28;20046;-86
2023/01/14 07:27:59;;;;;;;2.38;1.60;;;9.10;81.10;;;;;;5084146;28;20051;-86
2023/01/14 07:30:25;;;;;;;3.55;1.90;;;9.10;81.10;;;;;;5080686;28;20640;-83
2023/01/14 07:32:51;;;;;;;2.58;1.50;;;9.10;81.10;;;;;;5057247;28;20089;-86
2023/01/14 07:35:16;;;;;;;3.67;1.90;;;9.10;81.10;;;;;;5068542;28;20035;-86
2023/01/14 07:37:42;;;;;;;4.38;1.80;;;9.10;81.10;;;;;;5054215;28;20028;-86
2023/01/14 07:40:09;;;;;;;2.63;1.70;;;9.10;81.10;;;;;;5060948;28;20024;-86
2023/01/14 07:42:34;;;;;;;2.75;1.60;;;9.10;81.10;;;;;;5082419;28;20051;-85
2023/01/14 07:45:00;;;;;;;2.78;1.50;;;9.10;81.10;;;;;;5077189;28;20016;-85
2023/01/14 07:47:26;;;;;;;1.80;1.48;;;9.10;81.10;;;;;;5057245;28;20024;-85
2023/01/14 07:49:52;;;;;;;5.20;1.85;;;9.10;81.10;;;;;;5068019;28;20047;-86
2023/01/14 07:52:17;;;;;;;2.25;1.40;;;9.10;81.10;;;;;;5058785;28;20119;-87
2023/01/14 07:54:43;;;;;;;3.60;1.90;;;9.10;81.10;;;;;;5080830;28;20177;-87
2023/01/14 07:57:10;;;;;;;2.22;1.40;;;9.10;81.10;;;;;;5065142;28;20480;-86
2023/01/14 07:59:37;;;;;;;2.63;1.58;;;9.10;81.10;;;;;;5066805;28;20024;-85
2023/01/14 08:02:05;;;;;;;3.05;1.65;;;9.10;81.10;;;;;;5078824;28;20055;-86
2023/01/14 08:04:32;;;;;;;2.30;1.73;;;9.10;81.20;;;;;;5085954;28;20040;-85
2023/01/14 08:06:58;;;;;;;3.83;1.60;;;9.10;81.20;;;;;;5063657;28;20110;-86
2023/01/14 08:09:25;;;;;;;1.98;1.50;;;9.10;81.10;;;;;;5068401;28;20016;-84
2023/01/14 08:11:52;;;;;;;4.53;1.63;;;9.10;81.10;;;;;;5044290;28;20123;-83
2023/01/14 08:14:18;;;;;;;2.00;1.30;;;9.10;81.10;;;;;;5062148;28;20052;-85
2023/01/14 08:16:44;;;;;;;3.03;1.63;;;9.20;81.20;;;;;;5093261;28;20491;-86
2023/01/14 08:19:12;;;;;;;2.22;1.60;;;9.10;81.10;;;;;;5092218;28;20028;-85
2023/01/14 08:21:38;;;;;;;2.83;1.48;;;9.10;81.10;;;;;;5072951;28;20107;-83
2023/01/14 08:24:04;;;;;;;3.88;1.60;;;9.20;81.10;;;;;;5095358;28;20073;-85
2023/01/14 08:26:30;;;;;;;3.10;2.17;;;9.20;81.20;;;;;;5047338;28;20129;-83
2023/01/14 08:28:56;;;;;;;3.22;1.70;;;9.20;81.20;;;;;;5076266;28;20040;-82
2023/01/14 08:31:22;;;;;;;2.03;1.40;;;9.20;81.10;;;;;;5067435;28;20052;-83
2023/01/14 08:33:47;;;;;;;3.45;1.63;;;9.20;81.10;;;;;;5064267;28;20081;-84
2023/01/14 08:36:16;;;;;;;3.92;1.80;;;9.20;81.10;;;;;;5078465;28;20027;-81
2023/01/14 08:38:44;;;;;;;2.10;1.50;;;9.20;81.10;;;;;;5063892;28;20456;-82
2023/01/14 08:41:12;;;;;;;2.58;1.67;;;9.20;81.20;;;;;;5073622;28;20107;-81
2023/01/14 08:43:39;;;;;;;3.08;1.65;;;9.20;81.20;;;;;;5080732;28;20039;-81
2023/01/14 08:46:06;;;;;;;2.53;1.73;;;9.20;81.20;;;;;;5058721;28;20028;-82
2023/01/14 08:48:32;;;;;;;2.88;1.52;;;9.20;81.20;;;;;;5074316;28;20360;-82
2023/01/14 08:51:04;;;;;;;1.70;1.60;;;9.30;81.20;;;;;;5084691;28;20036;-83
2023/01/14 08:53:31;;;;;;;1.92;1.48;;;9.20;81.20;;;;;;5066739;28;20032;-83
2023/01/14 08:56:00;;;;;;;3.00;1.60;;;9.20;81.20;;;;;;5092787;28;20020;-83
2023/01/14 08:58:26;;;;;;;2.25;1.60;;;9.20;81.20;;;;;;5066826;28;20028;-84
2023/01/14 09:00:57;;;;;;;2.15;1.60;;;9.30;81.20;;;;;;5072031;28;20028;-83
2023/01/14 09:03:25;;;;;;;2.60;1.73;;;9.30;81.20;;;;;;5072584;28;20470;-83
2023/01/14 09:05:56;;;;;;;2.42;1.60;;;9.20;81.10;;;;;;5056217;28;20079;-84
2023/01/14 09:19:25;;;;;;;3.10;1.65;;;9.30;81.10;;;;;;5087881;28;20085;-84
2023/01/14 09:21:50;;;;;;;1.67;1.50;;;9.30;81.10;;;;;;5057120;28;20036;-82
2023/01/14 09:24:16;;;;;;;2.97;1.48;;;9.30;81.10;;;;;;5073143;28;20028;-83
2023/01/14 09:26:42;;;;;;;2.70;1.38;;;9.30;81.20;;;;;;5087246;28;20039;-86
2023/01/14 09:29:07;;;;;;;2.03;1.70;;;9.30;81.20;;;;;;5075727;28;20021;-85
2023/01/14 09:31:33;;;;;;;1.85;1.33;;;9.30;81.20;;;;;;5077243;28;20895;-86
2023/01/14 09:33:59;;;;;;;1.52;1.42;;;9.40;81.20;;;;;;5075631;28;20051;-84
2023/01/14 09:36:25;;;;;;;2.50;1.50;;;9.40;81.20;;;;;;5073592;28;21683;-83
2023/01/14 09:38:50;;;;;;;2.28;1.63;;;9.40;81.80;;;;;;5068917;28;20034;-84
2023/01/14 09:41:29;;;;;;;2.70;1.63;;;9.40;81.20;;;;;;5059982;28;20036;-83
2023/01/14 09:43:55;;;;;;;2.25;1.50;;;9.40;81.20;;;;;;5082198;28;20028;-83
2023/01/14 09:46:26;;;;;;;2.35;1.55;;;9.40;81.10;;;;;;5100838;28;20032;-84
2023/01/14 09:48:55;;;;;;;1.85;1.45;;;9.40;81.20;;;;;;5058180;28;20016;-82
2023/01/14 09:51:46;;;;;;;2.17;1.45;;;9.50;81.20;;;;;;5086436;28;20032;-83
2023/01/14 09:54:20;;;;;;;1.65;1.42;;;9.40;81.20;;;;;;5074585;28;20024;-84
2023/01/14 09:57:13;;;;;;;1.77;1.57;;;9.40;81.20;;;;;;5090915;28;20106;-83
2023/01/14 09:59:58;;;;;;;1.52;1.40;;;9.50;81.20;;;;;;5071345;28;20051;-83
2023/01/14 10:02:47;;;;;;;1.88;1.58;;;9.50;81.20;;;;;;5079832;28;20024;-83
2023/01/14 10:05:19;;;;;;;1.58;1.48;;;9.50;81.20;;;;;;5082048;28;20023;-84
2023/01/14 10:07:45;;;;;;;1.20;1.15;;;9.50;81.10;;;;;;5093857;28;20035;-83
2023/01/14 10:10:32;;;;;;;1.58;1.30;;;9.50;81.10;;;;;;5077705;28;20032;-85
2023/01/14 10:13:08;;;;;;;2.38;1.40;;;9.50;81.20;;;;;;5064922;28;20034;-84
2023/01/14 10:15:57;;;;;;;1.30;1.20;;;9.50;81.20;;;;;;5069087;28;20099;-83
2023/01/14 10:18:54;;;;;;;1.95;1.40;;;9.60;81.20;;;;;;5062114;28;20107;-84
2023/01/14 10:21:38;;;;;;;1.50;1.40;;;9.60;81.20;;;;;;5076859;28;20085;-84
2023/01/14 10:24:05;;;;;;;1.48;1.30;;;9.50;81.20;;;;;;5090961;28;20032;-83
2023/01/14 10:26:32;;;;;;;2.20;1.77;;;9.60;81.20;;;;;;5050191;28;20105;-84
2023/01/14 10:29:08;;;;;;;1.52;1.38;;;9.60;81.20;;;;;;5083736;28;20043;-84
2023/01/14 10:31:36;;;;;;;1.30;1.20;;;9.60;81.20;;;;;;5094008;28;20096;-84
2023/01/14 10:34:01;;;;;;;1.73;1.27;;;9.60;81.20;;;;;;5057038;28;20133;-84
2023/01/14 10:36:30;;;;;;;2.33;1.42;;;9.60;81.10;;;;;;5055223;28;20048;-84
2023/01/14 10:38:57;;;;;;;2.88;1.40;;;9.70;81.20;;;;;;5095505;28;20103;-84
2023/01/14 10:44:28;;;;;;;1.87;1.30;;;9.70;81.20;;;;;;5077259;28;20107;-84
2023/01/14 10:46:57;;;;;;;1.77;1.50;;;9.70;81.20;;;;;;5078130;28;20024;-83
2023/01/14 10:49:37;;;;;;;1.10;1.10;;;9.70;81.10;;;;;;5091586;28;20030;-84
2023/01/14 10:52:21;;;;;;;1.30;1.20;;;9.70;81.10;;;;;;5072974;28;20028;-84
2023/01/14 10:55:11;;;;;;;1.40;1.30;;;9.70;81.20;;;;;;5089638;28;20024;-84
2023/01/14 10:58:01;;;;;;;1.67;1.38;;;9.80;81.20;;;;;;5079461;28;20028;-84
2023/01/14 11:00:38;;;;;;;1.33;1.15;;;9.80;81.20;;;;;;5077366;28;20024;-84
2023/01/14 11:03:09;;;;;;;2.60;1.33;;;9.80;81.10;;;;;;5056277;28;20066;-84
2023/01/14 11:05:37;;;;;;;2.60;1.75;;;9.80;81.70;;;;;;5091677;28;20126;-84
2023/01/14 11:08:31;;;;;;;1.40;1.30;;;9.80;81.10;;;;;;5092830;28;20016;-90
2023/01/14 11:11:07;;;;;;;1.90;1.27;;;9.90;81.20;;;;;;5069166;28;20039;-88
2023/01/14 11:13:44;;;;;;;1.58;1.30;;;9.90;81.20;;;;;;5083426;28;20028;-86
2023/01/14 11:16:25;;;;;;;1.40;1.30;;;9.90;81.20;;;;;;5081336;28;20058;-89
2023/01/14 11:18:56;;;;;;;1.63;1.20;;;9.90;81.20;;;;;;5068877;28;20032;-89
2023/01/14 11:21:24;;;;;;;1.73;1.30;;;9.90;81.10;;;;;;5100332;28;20028;-90
2023/01/14 11:23:54;;;;;;;1.23;1.13;;;9.90;81.10;;;;;;5085376;28;20053;-89
2023/01/14 11:26:27;;;;;;;1.23;1.15;;;9.90;81.10;;;;;;5088032;28;20032;-90
2023/01/14 11:28:59;;;;;;;1.25;1.15;;;9.90;81.10;;;;;;5085801;28;20051;-89
2023/01/14 11:31:35;;;;;;;1.10;1.00;;;9.90;81.10;;;;;;5068368;28;20021;-90
2023/01/14 11:34:02;;;;;;;1.20;1.10;;;10.00;81.20;;;;;;5088048;28;20085;-90
2023/01/14 11:36:33;;;;;;;1.42;1.33;;;10.00;81.20;;;;;;5067456;28;20032;-89
2023/01/14 11:39:00;;;;;;;1.45;1.20;;;10.00;81.20;;;;;;5071801;28;20024;-90
2023/01/14 11:41:39;;;;;;;1.40;1.30;;;10.00;81.20;;;;;;5050711;28;20032;-89
2023/01/14 11:44:15;;;;;;;1.27;1.17;;;10.00;81.20;;;;;;5085909;28;20024;-89
2023/01/14 11:46:44;;;;;;;1.20;1.10;;;10.00;81.20;;;;;;5082966;28;20028;-89
2023/01/14 11:49:17;;;;;;;1.30;1.20;;;10.00;81.20;;;;;;5062907;28;20039;-90
2023/01/14 11:52:21;;;;;;;1.20;1.10;;;10.10;81.20;;;;;;5089068;28;20065;-89
2023/01/14 11:54:48;;;;;;;1.20;1.10;;;10.10;81.40;;;;;;5093068;28;20028;-89
2023/01/14 11:57:15;;;;;;;1.25;1.15;;;10.10;81.20;;;;;;5077617;28;20020;-89
2023/01/14 11:59:42;;;;;;;1.55;1.40;;;10.10;81.20;;;;;;5077113;28;20080;-90
2023/01/14 12:02:24;;;;;;;1.20;1.10;;;10.10;81.20;;;;;;5064075;28;20047;-88
2023/01/14 12:05:24;;;;;;;1.40;1.13;;;10.20;81.30;;;;;;5095065;28;20024;-89
2023/01/14 12:07:53;;;;;;;1.20;1.10;;;10.20;81.10;;;;;;5057172;28;20054;-89
2023/01/14 12:10:27;;;;;;;1.80;1.30;;;10.20;81.00;;;;;;5088760;28;20031;-90
2023/01/14 12:19:14;;;;;;;1.50;1.20;;;10.30;81.00;;;;;;5096542;28;20103;-90
2023/01/14 12:21:46;;;;;;;1.23;1.13;;;10.30;80.90;;;;;;5067205;28;20447;-90
2023/01/14 12:24:50;;;;;;;1.30;1.20;;;10.30;80.90;;;;;;5066533;28;20032;-90
2023/01/14 12:27:43;;;;;;;1.17;1.10;;;10.30;81.00;;;;;;5083052;28;20048;-90
2023/01/14 12:30:38;;;;;;;1.10;1.10;;;10.40;81.00;;;;;;5093462;28;20060;-90
2023/01/14 12:33:14;;;;;;;1.10;1.10;;;10.40;81.00;;;;;;5076770;28;20040;-90
2023/01/14 12:35:52;;;;;;;1.30;1.20;;;10.40;80.90;;;;;;5079265;28;20028;-90
2023/01/14 12:47:26;;;;;;;1.10;1.10;;;10.50;80.90;;;;;;5091527;28;20059;-90
2023/01/14 12:49:52;;;;;;;1.00;1.00;;;10.50;80.90;;;;;;5097652;28;20039;-90
2023/01/14 12:52:29;;;;;;;1.00;1.00;;;10.50;80.90;;;;;;5081962;28;20028;-90
2023/01/14 12:54:56;;;;;;;1.00;1.00;;;10.50;81.00;;;;;;5086670;28;20043;-90
2023/01/14 12:57:24;;;;;;;1.20;1.10;;;10.50;80.90;;;;;;5074696;28;20032;-87
2023/01/14 13:00:24;;;;;;;1.02;1.02;;;10.50;80.90;;;;;;5093958;28;20169;-90
2023/01/14 13:02:53;;;;;;;1.45;1.10;;;10.50;81.00;;;;;;5044046;28;20103;-90
2023/01/14 13:05:28;;;;;;;1.15;1.10;;;10.60;80.90;;;;;;5069458;28;20380;-89
2023/01/14 13:07:59;;;;;;;0.90;0.90;;;10.60;80.90;;;;;;5065174;28;20020;-90
2023/01/14 13:10:32;;;;;;;0.90;0.90;;;10.60;80.90;;;;;;5086390;28;20031;-91
2023/01/14 13:12:59;;;;;;;1.05;1.05;;;10.60;80.90;;;;;;5086419;28;20142;-90
2023/01/14 13:15:29;;;;;;;1.05;1.05;;;10.60;80.80;;;;;;5066987;28;20044;-90
2023/01/14 13:18:00;;;;;;;1.00;1.00;;;10.70;80.90;;;;;;5082079;28;20028;-91
2023/01/14 13:20:29;;;;;;;1.00;1.00;;;10.70;80.90;;;;;;5057435;28;20120;-91
2023/01/14 13:22:59;;;;;;;1.15;1.00;;;10.70;80.80;;;;;;5091523;28;20047;-89
2023/01/14 13:25:44;;;;;;;1.20;1.10;;;10.70;80.80;;;;;;5089636;28;20039;-91
2023/01/14 13:28:14;;;;;;;;;;;10.70;80.90;;;;;;5064345;28;20028;-91
2023/01/14 13:30:47;;;;;;;1.10;1.10;;;10.70;80.70;;;;;;5059840;28;19916;-90
2023/01/14 13:33:27;;;;;;;1.00;1.00;;;10.70;80.60;;;;;;5092939;28;20024;-91
2023/01/14 13:36:09;;;;;;;1.40;1.30;;;10.70;80.80;;;;;;5090629;28;20031;-89
2023/01/14 13:38:48;;;;;;;1.25;1.10;;;10.80;80.90;;;;;;5063627;28;20032;-89
2023/01/14 13:41:39;;;;;;;1.00;1.00;;;10.80;80.90;;;;;;5063913;28;20384;-90
2023/01/14 13:44:32;;;;;;;1.30;1.20;;;10.80;80.90;;;;;;5090247;28;20102;-89
2023/01/14 13:47:01;;;;;;;1.00;1.00;;;10.80;80.80;;;;;;5084119;28;20036;-90
2023/01/14 13:49:30;;;;;;;1.00;1.00;;;10.80;80.80;;;;;;5081690;28;20534;-90
2023/01/14 13:52:01;;;;;;;0.90;0.90;;;10.80;80.80;;;;;;5078228;28;20032;-90
2023/01/14 13:54:31;;;;;;;1.00;1.00;;;10.90;80.90;;;;;;5058204;28;20055;-87
2023/01/14 13:57:31;;;;;;;1.00;1.00;;;10.90;80.90;;;;;;5056546;28;20077;-85